Time;durP1;ratioP1;P1;durP2;ratioP2;P2;SDS_P1;SDS_P2;PMS_P1;PMS_P2;Temp;Humidity;BMP_temperature;BMP_pressure;BME280_temperature;BME280_humidity;BME280_pressure;Samples;Min_cycle;Max_cycle;Signal;HPM_P1;HPM_P2
2023/07/09 00:00:53;;;;;;;4.55;2.33;;;;;;;27.23;30.62;101711.97;4978362;28;97285;-69
2023/07/09 00:03:20;;;;;;;3.92;2.60;;;;;;;27.27;30.50;101709.81;4987911;28;99244;-68
2023/07/09 00:05:49;;;;;;;7.72;2.47;;;;;;;27.21;30.99;101711.25;4996212;28;98838;-69
2023/07/09 00:08:27;;;;;;;5.38;2.70;;;;;;;26.98;30.89;101710.59;5002648;28;99779;-69
2023/07/09 00:10:53;;;;;;;5.90;2.45;;;;;;;26.89;31.31;101703.28;5000218;28;96708;-69
2023/07/09 00:13:20;;;;;;;4.65;2.22;;;;;;;26.93;31.29;101714.72;4997350;28;98983;-69
2023/07/09 00:15:48;;;;;;;9.07;2.88;;;;;;;27.11;31.58;101707.63;5004508;28;99084;-69
2023/07/09 00:18:14;;;;;;;11.52;3.47;;;;;;;26.61;33.01;101714.81;5009863;28;97185;-70
2023/07/09 00:20:43;;;;;;;7.35;3.05;;;;;;;26.78;32.72;101705.22;4997250;28;97265;-69
2023/07/09 00:23:13;;;;;;;5.40;2.65;;;;;;;26.86;32.73;101705.38;4994074;28;99233;-69
2023/07/09 00:25:43;;;;;;;8.25;2.97;;;;;;;26.80;33.29;101708.63;4997146;28;98894;-69
2023/07/09 00:28:14;;;;;;;6.85;3.15;;;;;;;26.54;34.07;101702.78;4994672;28;96847;-69
2023/07/09 00:30:40;;;;;;;9.60;3.33;;;;;;;26.45;33.97;101698.19;4990920;28;97107;-69
2023/07/09 00:33:11;;;;;;;6.20;2.75;;;;;;;26.25;34.29;101697.22;4989511;28;98996;-69
2023/07/09 00:35:40;;;;;;;9.82;3.40;;;;;;;26.22;34.42;101700.16;4990492;28;101598;-68
2023/07/09 00:38:13;;;;;;;8.77;3.42;;;;;;;26.39;34.11;101696.00;4985597;28;96876;-69
2023/07/09 00:40:48;;;;;;;3.67;2.78;;;;;;;26.46;34.17;101702.59;4988151;28;98204;-69
2023/07/09 00:43:17;;;;;;;4.75;2.78;;;;;;;26.73;33.13;101691.19;4984945;28;99370;-69
2023/07/09 00:45:43;;;;;;;6.80;2.75;;;;;;;26.54;32.91;101684.69;4990382;28;99027;-69
2023/07/09 00:48:15;;;;;;;6.10;2.80;;;;;;;26.59;32.66;101679.72;4991025;28;98107;-69
2023/07/09 00:50:47;;;;;;;6.60;2.70;;;;;;;26.68;32.63;101680.75;4996897;28;97099;-70
2023/07/09 00:53:18;;;;;;;5.80;2.83;;;;;;;26.46;33.05;101679.06;4992716;28;101388;-69
2023/07/09 00:55:49;;;;;;;3.42;2.17;;;;;;;26.67;32.59;101680.88;4992023;28;99030;-69
2023/07/09 00:58:16;;;;;;;4.28;2.45;;;;;;;26.81;32.07;101672.38;4991617;28;96868;-69
2023/07/09 01:00:47;;;;;;;4.78;2.45;;;;;;;26.87;31.92;101677.25;4997687;28;96994;-70
2023/07/09 01:03:20;;;;;;;3.75;2.05;;;;;;;27.01;31.70;101667.91;4995438;28;99008;-69
2023/07/09 01:05:51;;;;;;;4.97;2.55;;;;;;;26.95;32.03;101666.63;4988322;28;99336;-69
2023/07/09 01:08:20;;;;;;;4.00;2.53;;;;;;;26.34;33.09;101668.44;4992257;28;96787;-69
2023/07/09 01:10:46;;;;;;;5.43;3.40;;;;;;;26.95;32.12;101663.91;4987886;28;97081;-69
2023/07/09 01:13:14;;;;;;;6.45;2.80;;;;;;;26.83;32.54;101667.69;4992056;28;99219;-64
2023/07/09 01:15:41;;;;;;;5.75;2.65;;;;;;;26.61;33.49;101673.28;4985305;28;101663;-64
2023/07/09 01:18:08;;;;;;;7.68;2.78;;;;;;;26.53;34.34;101682.97;4987370;28;97114;-64
2023/07/09 01:20:36;;;;;;;6.50;2.70;;;;;;;26.41;34.73;101686.75;4987928;28;97206;-63
2023/07/09 01:23:05;;;;;;;10.40;3.45;;;;;;;26.33;36.11;101680.28;4994691;28;98264;-63
2023/07/09 01:25:32;;;;;;;10.48;2.85;;;;;;;26.26;36.25;101682.66;4994956;28;101806;-63
2023/07/09 01:27:59;;;;;;;9.50;2.35;;;;;;;25.99;36.49;101682.31;5012806;28;96928;-64
2023/07/09 01:30:29;;;;;;;6.20;2.40;;;;;;;26.10;36.92;101690.38;5000931;28;97109;-64
2023/07/09 01:32:58;;;;;;;12.43;3.08;;;;;;;25.72;37.83;101680.09;5003052;28;101646;-64
2023/07/09 01:35:26;;;;;;;8.25;2.70;;;;;;;25.75;37.15;101683.41;4998885;28;98891;-64
2023/07/09 01:37:53;;;;;;;7.15;3.10;;;;;;;25.52;37.60;101687.16;4997736;28;96826;-63
2023/07/09 01:40:23;;;;;;;6.82;2.40;;;;;;;25.47;37.87;101683.94;4999780;28;97670;-63
2023/07/09 01:42:50;;;;;;;4.25;2.85;;;;;;;25.60;37.52;101679.25;4989079;28;98896;-63
2023/07/09 01:45:17;;;;;;;7.20;2.47;;;;;;;25.54;37.48;101687.88;4988304;28;98234;-63
2023/07/09 01:47:44;;;;;;;4.68;2.58;;;;;;;25.42;37.87;101683.47;5001156;28;96811;-63
2023/07/09 01:50:11;;;;;;;10.05;3.10;;;;;;;25.26;38.26;101685.75;5000320;28;96981;-64
2023/07/09 01:52:42;;;;;;;8.82;3.00;;;;;;;25.29;38.29;101680.06;4992307;28;98959;-63
2023/07/09 01:55:11;;;;;;;4.35;2.42;;;;;;;25.30;38.46;101671.84;4991033;28;99854;-63
2023/07/09 01:57:40;;;;;;;4.35;2.58;;;;;;;25.50;37.36;101677.44;4990906;28;97420;-63
2023/07/09 02:00:10;;;;;;;6.82;2.72;;;;;;;25.69;36.57;101670.38;4982872;28;96827;-64
2023/07/09 02:02:38;;;;;;;4.35;2.67;;;;;;;25.77;36.00;101676.00;4986537;28;98930;-64
2023/07/09 02:05:06;;;;;;;6.30;2.67;;;;;;;25.86;35.96;101668.09;5010198;28;99068;-64
2023/07/09 02:07:32;;;;;;;5.78;2.85;;;;;;;25.87;36.07;101680.63;4992266;28;97829;-64
2023/07/09 02:09:59;;;;;;;6.72;2.60;;;;;;;25.79;35.75;101678.59;5010141;28;96914;-63
2023/07/09 02:12:25;;;;;;;7.78;2.55;;;;;;;25.70;35.88;101673.94;4998821;28;98536;-63
2023/07/09 02:14:53;;;;;;;3.22;2.45;;;;;;;25.55;36.39;101677.91;5002011;28;98974;-63
2023/07/09 02:17:19;;;;;;;5.00;2.70;;;;;;;25.74;35.60;101678.09;5005222;28;97069;-63
2023/07/09 02:19:46;;;;;;;8.02;2.92;;;;;;;25.64;35.68;101678.03;5005045;28;96996;-64
2023/07/09 02:22:12;;;;;;;4.70;2.42;;;;;;;25.30;36.32;101679.97;4991048;28;99039;-64
2023/07/09 02:24:39;;;;;;;6.10;2.35;;;;;;;25.80;35.56;101691.13;4996055;28;99387;-64
2023/07/09 02:27:10;;;;;;;4.47;2.95;;;;;;;25.68;35.48;101694.88;4991119;28;97069;-65
2023/07/09 02:29:37;;;;;;;5.80;2.88;;;;;;;25.86;34.92;101697.88;4994457;28;97833;-65
2023/07/09 02:32:05;;;;;;;2.53;2.33;;;;;;;25.57;35.87;101694.88;4988115;28;101155;-64
2023/07/09 02:34:32;;;;;;;4.15;2.80;;;;;;;25.40;36.84;101688.19;4986259;28;98875;-65
2023/07/09 02:37:00;;;;;;;7.07;3.33;;;;;;;25.30;37.89;101690.78;4989462;28;97284;-64
2023/07/09 02:39:27;;;;;;;4.80;3.38;;;;;;;25.27;38.40;101690.19;5000611;28;97140;-64
2023/07/09 02:41:53;;;;;;;4.75;3.05;;;;;;;25.22;38.41;101695.09;4995144;28;98014;-63
2023/07/09 02:44:20;;;;;;;4.03;2.75;;;;;;;25.50;38.05;101690.97;4999949;28;97780;-64
2023/07/09 02:46:47;;;;;;;3.72;2.90;;;;;;;25.58;37.57;101683.97;4989000;28;96732;-63
2023/07/09 02:49:15;;;;;;;4.90;3.08;;;;;;;25.59;37.63;101696.53;4998918;28;96823;-63
2023/07/09 02:51:41;;;;;;;4.63;3.05;;;;;;;25.56;37.36;101696.72;4996203;28;99616;-63
2023/07/09 02:54:08;;;;;;;6.95;2.90;;;;;;;25.75;37.33;101696.94;4996583;28;99271;-63
2023/07/09 02:56:35;;;;;;;8.07;2.92;;;;;;;25.79;36.89;101698.41;4999357;28;96846;-64
2023/07/09 02:59:01;;;;;;;4.60;3.03;;;;;;;25.57;36.60;101705.72;4997509;28;98165;-64
2023/07/09 03:01:28;;;;;;;6.50;2.80;;;;;;;25.38;36.88;101706.38;5000705;28;98946;-64
2023/07/09 03:03:55;;;;;;;8.10;2.78;;;;;;;25.44;38.07;101705.88;4994499;28;99015;-64
2023/07/09 03:06:24;;;;;;;5.15;2.95;;;;;;;25.53;38.10;101707.81;4993712;28;96781;-64
2023/07/09 03:08:51;;;;;;;9.07;3.33;;;;;;;25.65;37.37;101714.94;4998458;28;96779;-64
2023/07/09 03:11:18;;;;;;;7.03;3.15;;;;;;;25.64;37.40;101707.81;5002193;28;98917;-64
2023/07/09 03:13:45;;;;;;;4.00;2.63;;;;;;;25.38;37.80;101707.25;4992476;28;99088;-64
2023/07/09 03:16:12;;;;;;;5.20;3.05;;;;;;;25.11;39.24;101709.50;4982543;28;96782;-64
2023/07/09 03:18:39;;;;;;;5.97;3.30;;;;;;;25.28;39.56;101710.81;4986969;28;97902;-64
2023/07/09 03:21:05;;;;;;;6.80;2.72;;;;;;;25.20;40.08;101706.06;4992747;28;99183;-64
2023/07/09 03:23:33;;;;;;;7.57;2.95;;;;;;;25.09;40.61;101705.19;4994092;28;99175;-65
2023/07/09 03:26:00;;;;;;;7.60;2.80;;;;;;;25.41;40.05;101708.81;4992609;28;96810;-65
2023/07/09 03:28:26;;;;;;;7.07;2.78;;;;;;;25.43;39.91;101717.69;4985437;28;96784;-65
2023/07/09 03:30:55;;;;;;;4.13;2.75;;;;;;;25.52;38.21;101714.22;4990957;28;99042;-64
2023/07/09 03:33:22;;;;;;;5.35;3.10;;;;;;;25.72;36.82;101716.16;4985141;28;98150;-64
2023/07/09 03:35:49;;;;;;;4.60;2.97;;;;;;;25.76;36.33;101720.31;4985490;28;96965;-63
2023/07/09 03:38:15;;;;;;;9.32;3.63;;;;;;;25.80;36.28;101718.19;4988315;28;96814;-63
2023/07/09 03:40:43;;;;;;;4.72;3.38;;;;;;;25.80;36.51;101716.34;4998891;28;102764;-64
2023/07/09 03:43:10;;;;;;;7.03;3.60;;;;;;;25.83;36.30;101708.97;4987107;28;101601;-64
2023/07/09 03:45:38;;;;;;;5.53;3.03;;;;;;;25.87;36.66;101715.81;4999280;28;96883;-64
2023/07/09 03:48:05;;;;;;;5.35;3.38;;;;;;;25.86;36.08;101716.84;4991819;28;96948;-64
2023/07/09 03:50:32;;;;;;;8.43;3.70;;;;;;;25.77;36.40;101711.22;4992849;28;98902;-64
2023/07/09 03:53:00;;;;;;;9.48;3.33;;;;;;;25.87;36.50;101715.81;4986137;28;99024;-65
2023/07/09 03:55:26;;;;;;;5.78;2.97;;;;;;;25.92;36.27;101721.75;4997823;28;97424;-64
2023/07/09 03:57:54;;;;;;;4.93;2.72;;;;;;;26.00;36.06;101721.91;4992734;28;96941;-64
2023/07/09 04:00:21;;;;;;;11.55;3.97;;;;;;;26.02;36.39;101720.81;4996581;28;99211;-65
2023/07/09 04:02:47;;;;;;;11.20;3.53;;;;;;;26.11;36.17;101721.88;4981648;28;98862;-64
2023/07/09 04:05:14;;;;;;;8.30;3.28;;;;;;;25.94;36.15;101723.31;4988873;28;96890;-64
2023/07/09 04:07:40;;;;;;;14.85;3.53;;;;;;;26.20;35.92;101724.66;4991848;28;97550;-64
2023/07/09 04:10:07;;;;;;;4.88;3.40;;;;;;;26.13;36.37;101733.44;4986989;28;99356;-64
2023/07/09 04:12:34;;;;;;;6.93;3.92;;;;;;;26.15;36.19;101739.59;4997571;28;97550;-63
2023/07/09 04:15:02;;;;;;;8.25;3.88;;;;;;;26.13;35.89;101731.56;4992660;28;96802;-64
2023/07/09 04:17:29;;;;;;;4.03;3.28;;;;;;;26.42;35.66;101737.25;4996922;28;96958;-65
2023/07/09 04:19:56;;;;;;;5.85;2.88;;;;;;;26.24;36.11;101738.84;4999339;28;99143;-64
2023/07/09 04:22:22;;;;;;;7.28;3.15;;;;;;;26.50;35.65;101734.75;5004462;28;98842;-63
2023/07/09 04:24:49;;;;;;;6.90;2.78;;;;;;;26.43;35.72;101738.09;4988986;28;98699;-64
2023/07/09 04:27:16;;;;;;;5.75;3.30;;;;;;;26.56;35.92;101733.34;4995870;28;96985;-63
2023/07/09 04:29:43;;;;;;;8.73;3.47;;;;;;;26.66;35.52;101736.94;4994146;28;99290;-64
2023/07/09 04:32:14;;;;;;;6.78;3.10;;;;;;;26.55;35.65;101737.91;4989200;28;99081;-63
2023/07/09 04:34:40;;;;;;;5.18;2.92;;;;;;;26.85;35.06;101733.47;4995542;28;97661;-64
2023/07/09 04:37:07;;;;;;;5.00;2.70;;;;;;;26.98;35.00;101738.72;4981134;28;97031;-64
2023/07/09 04:39:34;;;;;;;4.90;3.08;;;;;;;26.73;35.48;101734.56;4991108;28;99057;-64
2023/07/09 04:42:00;;;;;;;4.20;2.97;;;;;;;26.81;35.44;101737.47;4988381;28;101425;-64
2023/07/09 04:44:27;;;;;;;5.13;3.00;;;;;;;27.06;35.02;101742.44;4989172;28;96742;-64
2023/07/09 04:46:53;;;;;;;6.82;3.28;;;;;;;27.02;35.14;101734.75;4996645;28;96776;-64
2023/07/09 04:49:21;;;;;;;6.13;3.30;;;;;;;27.22;35.12;101733.81;4986253;28;99728;-64
2023/07/09 04:51:47;;;;;;;6.93;3.75;;;;;;;27.38;34.55;101734.97;4992375;28;101450;-64
2023/07/09 04:54:14;;;;;;;5.85;3.40;;;;;;;27.37;34.25;101735.16;4988756;28;98324;-64
2023/07/09 04:56:44;;;;;;;3.78;3.38;;;;;;;27.55;34.09;101732.63;5006069;28;97295;-64
2023/07/09 04:59:10;;;;;;;5.95;3.83;;;;;;;27.66;33.62;101732.50;4988281;28;98873;-64
2023/07/09 05:01:36;;;;;;;5.00;3.03;;;;;;;28.18;33.37;101733.09;4986874;28;99178;-64
2023/07/09 05:04:03;;;;;;;5.57;3.00;;;;;;;28.63;32.27;101728.72;4991794;28;96885;-67
2023/07/09 05:06:31;;;;;;;4.03;3.13;;;;;;;29.94;30.09;101735.66;4988195;28;96968;-64
2023/07/09 05:08:58;;;;;;;5.05;2.90;;;;;;;31.08;28.40;101741.97;4984405;28;99286;-64
2023/07/09 05:11:24;;;;;;;4.65;2.90;;;;;;;31.64;27.32;101738.56;4982253;28;98942;-65
2023/07/09 05:13:51;;;;;;;5.90;3.55;;;;;;;31.40;27.37;101727.56;4987396;28;96918;-65
2023/07/09 05:16:17;;;;;;;4.15;3.28;;;;;;;31.39;27.28;101731.31;4998498;28;99044;-64
2023/07/09 05:18:45;;;;;;;3.80;2.90;;;;;;;31.18;27.66;101740.78;4989669;28;98961;-64
2023/07/09 05:21:12;;;;;;;4.97;2.78;;;;;;;30.84;27.60;101739.94;4990095;28;99070;-66
2023/07/09 05:23:39;;;;;;;6.78;3.10;;;;;;;30.85;27.56;101739.75;4985937;28;96796;-63
2023/07/09 05:26:06;;;;;;;5.03;2.97;;;;;;;30.39;27.66;101751.03;4995058;28;97008;-63
2023/07/09 05:28:32;;;;;;;6.10;2.90;;;;;;;30.33;28.23;101755.22;4991999;28;99107;-63
2023/07/09 05:30:59;;;;;;;5.93;2.92;;;;;;;30.01;28.38;101744.91;4991822;28;98895;-64
2023/07/09 05:33:25;;;;;;;5.90;3.40;;;;;;;29.39;29.61;101742.19;4980610;28;96812;-63
2023/07/09 05:35:51;;;;;;;3.75;3.00;;;;;;;29.39;29.74;101736.75;4987164;28;97290;-63
2023/07/09 05:38:18;;;;;;;3.97;2.97;;;;;;;29.59;29.27;101736.47;4981491;28;102001;-64
2023/07/09 05:40:45;;;;;;;6.20;3.17;;;;;;;29.24;29.47;101742.69;4994218;28;99420;-63
2023/07/09 05:43:12;;;;;;;3.95;2.75;;;;;;;29.18;30.09;101736.97;4990704;28;96797;-63
2023/07/09 05:45:40;;;;;;;5.22;3.25;;;;;;;29.27;30.28;101741.53;4995518;28;97246;-65
2023/07/09 05:48:06;;;;;;;3.97;2.83;;;;;;;29.34;30.52;101739.09;4992704;28;98928;-63
2023/07/09 05:50:34;;;;;;;5.15;3.50;;;;;;;29.65;29.53;101735.00;4997340;28;98934;-64
2023/07/09 05:53:01;;;;;;;4.75;3.20;;;;;;;29.90;28.56;101738.81;4985413;28;96908;-64
2023/07/09 05:55:27;;;;;;;4.18;3.30;;;;;;;29.79;29.16;101748.09;4995249;28;96851;-64
2023/07/09 05:57:56;;;;;;;4.47;2.80;;;;;;;29.71;29.09;101739.84;4991841;28;99009;-64
2023/07/09 06:00:22;;;;;;;6.28;3.15;;;;;;;29.88;28.35;101738.97;4987391;28;99179;-64
2023/07/09 06:02:49;;;;;;;5.15;2.90;;;;;;;30.14;28.29;101741.78;4991846;28;97205;-64
2023/07/09 06:05:15;;;;;;;5.75;3.00;;;;;;;30.12;28.08;101743.84;4993010;28;96924;-64
2023/07/09 06:07:42;;;;;;;4.05;3.00;;;;;;;30.37;27.76;101737.56;4985787;28;98921;-63
2023/07/09 06:10:09;;;;;;;5.30;2.92;;;;;;;30.45;27.73;101734.91;4992782;28;98950;-63
2023/07/09 06:12:36;;;;;;;7.05;3.03;;;;;;;30.08;28.40;101739.69;4994665;28;97570;-64
2023/07/09 06:15:05;;;;;;;6.72;2.85;;;;;;;30.58;27.65;101744.56;5002407;28;96783;-64
2023/07/09 06:17:32;;;;;;;8.50;3.55;;;;;;;30.75;27.62;101746.34;4991782;28;99309;-64
2023/07/09 06:19:58;;;;;;;4.75;3.00;;;;;;;30.45;28.00;101740.34;4991121;28;98933;-64
2023/07/09 06:22:25;;;;;;;6.82;2.80;;;;;;;30.23;27.77;101746.31;4992604;28;96848;-64
2023/07/09 06:24:51;;;;;;;4.90;3.05;;;;;;;30.46;27.35;101747.50;4996374;28;97146;-63
2023/07/09 06:27:17;;;;;;;7.40;2.78;;;;;;;30.26;27.46;101751.41;4988431;28;99138;-64
2023/07/09 06:29:44;;;;;;;3.83;2.60;;;;;;;30.65;28.00;101751.94;4988919;28;98832;-64
2023/07/09 06:32:12;;;;;;;3.47;3.08;;;;;;;30.52;28.77;101750.66;4990343;28;96801;-64
2023/07/09 06:34:38;;;;;;;4.28;3.08;;;;;;;30.53;27.49;101750.47;4988474;28;97960;-64
2023/07/09 06:37:05;;;;;;;4.28;3.20;;;;;;;30.87;27.24;101751.38;4996124;28;99088;-63
2023/07/09 06:39:34;;;;;;;7.18;2.70;;;;;;;31.00;27.27;101750.94;4993393;28;98755;-65
2023/07/09 06:42:01;;;;;;;4.72;3.22;;;;;;;30.61;28.33;101757.84;4998631;28;98244;-64
2023/07/09 06:44:27;;;;;;;6.88;3.22;;;;;;;31.28;27.67;101757.91;4990453;28;97822;-64
2023/07/09 06:46:54;;;;;;;4.22;2.67;;;;;;;31.10;27.01;101748.97;4989137;28;98969;-64
2023/07/09 06:49:22;;;;;;;9.93;3.35;;;;;;;31.14;26.93;101757.69;4985499;28;102058;-64
2023/07/09 06:51:48;;;;;;;8.02;2.50;;;;;;;31.66;26.69;101758.41;4993711;28;97513;-64
2023/07/09 06:54:15;;;;;;;6.78;2.85;;;;;;;31.67;26.58;101762.84;4989837;28;96821;-64
2023/07/09 06:56:41;;;;;;;6.57;3.38;;;;;;;31.85;26.22;101760.81;4993525;28;99186;-64
2023/07/09 06:59:08;;;;;;;6.65;2.92;;;;;;;31.74;26.02;101760.28;4990273;28;98362;-64
2023/07/09 07:01:35;;;;;;;6.57;2.90;;;;;;;31.92;26.20;101761.84;4998259;28;97194;-64
2023/07/09 07:04:01;;;;;;;4.78;2.53;;;;;;;31.71;25.83;101757.88;4989054;28;97781;-63
2023/07/09 07:06:30;;;;;;;6.38;3.15;;;;;;;31.54;26.43;101766.03;4984748;28;98976;-64
2023/07/09 07:08:57;;;;;;;4.18;2.33;;;;;;;31.92;26.06;101761.84;4985556;28;101951;-63
2023/07/09 07:11:25;;;;;;;5.00;3.00;;;;;;;31.71;25.64;101761.47;4988710;28;96894;-65
2023/07/09 07:13:52;;;;;;;7.07;3.05;;;;;;;31.87;25.90;101760.66;4991526;28;96899;-64
2023/07/09 07:16:18;;;;;;;6.47;2.72;;;;;;;32.32;25.67;101761.06;4997577;28;101882;-64
2023/07/09 07:18:45;;;;;;;3.85;2.97;;;;;;;32.11;25.14;101759.81;4993417;28;98672;-64
2023/07/09 07:21:11;;;;;;;5.05;3.03;;;;;;;32.38;25.05;101760.38;4988649;28;96693;-64
2023/07/09 07:23:39;;;;;;;11.25;3.20;;;;;;;32.28;24.80;101754.22;4984988;28;96886;-64
2023/07/09 07:26:05;;;;;;;5.43;2.72;;;;;;;32.14;25.58;101754.91;4990490;28;98973;-64
2023/07/09 07:28:31;;;;;;;5.22;3.20;;;;;;;32.60;25.22;101758.81;4992251;28;99117;-65
2023/07/09 07:30:59;;;;;;;5.50;2.92;;;;;;;32.33;25.64;101762.78;4990983;28;97175;-65
2023/07/09 07:33:26;;;;;;;3.70;2.65;;;;;;;32.59;25.18;101756.25;4999730;28;97911;-65
2023/07/09 07:35:52;;;;;;;3.63;2.90;;;;;;;32.38;25.13;101762.25;4996005;28;97841;-65
2023/07/09 07:38:19;;;;;;;5.88;2.92;;;;;;;32.72;25.12;101757.44;4992891;28;98861;-64
2023/07/09 07:40:46;;;;;;;4.80;3.35;;;;;;;32.85;25.25;101754.16;4985583;28;97754;-64
2023/07/09 07:43:13;;;;;;;4.88;3.20;;;;;;;32.58;25.13;101762.72;4991610;28;96905;-64
2023/07/09 07:45:41;;;;;;;4.85;3.22;;;;;;;33.12;24.72;101753.72;4991025;28;99335;-64
2023/07/09 07:48:07;;;;;;;7.72;2.97;;;;;;;32.93;25.29;101756.03;4992660;28;101549;-64
2023/07/09 07:50:33;;;;;;;6.60;2.97;;;;;;;33.02;24.89;101758.53;4995569;28;97178;-64
2023/07/09 07:53:00;;;;;;;4.10;2.92;;;;;;;33.11;24.81;101753.91;4989145;28;97979;-65
2023/07/09 07:55:27;;;;;;;4.05;2.80;;;;;;;33.08;24.87;101757.00;4986978;28;101466;-64
2023/07/09 07:57:56;;;;;;;3.58;3.03;;;;;;;32.99;24.92;101749.84;4989812;28;98257;-64
2023/07/09 08:00:26;;;;;;;5.53;3.40;;;;;;;33.26;24.97;101748.56;4991663;28;96803;-65
2023/07/09 08:02:52;;;;;;;7.72;5.63;;;;;;;33.70;24.58;101752.41;4991904;28;96833;-64
2023/07/09 08:05:21;;;;;;;4.30;2.78;;;;;;;33.88;23.36;101761.22;4999428;28;99514;-64
2023/07/09 08:07:47;;;;;;;3.58;2.63;;;;;;;33.90;23.27;101761.06;4986332;28;98400;-64
2023/07/09 08:10:15;;;;;;;7.57;3.13;;;;;;;33.45;23.83;101757.19;4986165;28;97912;-64
2023/07/09 08:12:42;;;;;;;4.75;2.72;;;;;;;33.15;24.18;101752.50;4989333;28;97175;-65
2023/07/09 08:15:11;;;;;;;4.32;3.03;;;;;;;33.50;24.07;101746.56;4983261;28;99344;-64
2023/07/09 08:17:37;;;;;;;6.20;3.28;;;;;;;33.31;24.20;101751.63;4994825;28;99408;-65
2023/07/09 08:20:04;;;;;;;6.53;2.83;;;;;;;33.96;24.16;101752.09;5000301;28;97337;-64
2023/07/09 08:22:31;;;;;;;7.15;3.10;;;;;;;33.96;23.44;101757.59;4990469;28;97196;-64
2023/07/09 08:24:57;;;;;;;4.30;3.22;;;;;;;33.65;24.20;101754.84;4988356;28;98433;-63
2023/07/09 08:27:23;;;;;;;5.63;2.65;;;;;;;33.80;23.33;101746.75;4994802;28;98857;-64
2023/07/09 08:29:50;;;;;;;3.58;2.63;;;;;;;34.01;23.74;101757.88;4994278;28;98505;-64
2023/07/09 08:32:17;;;;;;;5.07;2.85;;;;;;;33.82;24.01;101756.47;4985787;28;96708;-64
2023/07/09 08:34:44;;;;;;;6.28;2.78;;;;;;;33.98;23.95;101752.78;4990991;28;96731;-65
2023/07/09 08:37:10;;;;;;;6.75;2.92;;;;;;;34.11;23.25;101757.66;4986427;28;100697;-64
2023/07/09 08:39:37;;;;;;;4.70;3.28;;;;;;;34.22;23.21;101755.34;4985903;28;96829;-64
2023/07/09 08:42:07;;;;;;;4.78;4.20;;;;;;;34.27;22.86;101755.63;4987665;28;96792;-64
2023/07/09 08:45:02;;;;;;;4.35;3.95;;;;;;;34.29;22.75;101747.22;4994636;28;99599;-65
2023/07/09 08:47:35;;;;;;;4.53;3.40;;;;;;;34.43;22.96;101754.66;4989034;28;99805;-64
2023/07/09 08:50:06;;;;;;;7.00;3.33;;;;;;;34.34;22.42;101755.75;4989123;28;96805;-64
2023/07/09 08:52:36;;;;;;;4.90;2.90;;;;;;;34.61;22.36;101752.41;5001373;28;97178;-70
2023/07/09 08:55:07;;;;;;;8.82;3.20;;;;;;;34.63;22.22;101743.97;4987310;28;98999;-69
2023/07/09 08:57:39;;;;;;;5.25;2.60;;;;;;;34.45;22.10;101746.22;4992353;28;101841;-69
2023/07/09 09:00:14;;;;;;;5.28;2.97;;;;;;;34.58;22.31;101736.31;4990424;28;96808;-69
2023/07/09 09:02:49;;;;;;;4.00;3.28;;;;;;;34.62;22.45;101742.28;4988030;28;96801;-68
2023/07/09 09:05:21;;;;;;;8.77;3.60;;;;;;;34.56;22.38;101738.38;4982686;28;99091;-70
2023/07/09 09:07:53;;;;;;;5.15;3.42;;;;;;;34.78;22.08;101739.41;4993257;28;99329;-70
2023/07/09 09:10:29;;;;;;;7.22;4.57;;;;;;;34.80;22.29;101740.03;4984762;28;97010;-70
2023/07/09 09:13:11;;;;;;;5.82;3.03;;;;;;;34.65;22.12;101741.91;4989459;28;97684;-70
2023/07/09 09:15:39;;;;;;;3.05;2.80;;;;;;;34.75;22.14;101739.75;4993121;28;99372;-70
2023/07/09 09:18:21;;;;;;;5.78;2.97;;;;;;;34.87;21.22;101735.50;4994772;28;98702;-70
2023/07/09 09:20:53;;;;;;;4.70;3.10;;;;;;;34.97;21.27;101735.22;4984464;28;97769;-69
2023/07/09 09:23:21;;;;;;;7.82;3.88;;;;;;;34.97;21.36;101737.97;4982715;28;98856;-71
2023/07/09 09:25:53;;;;;;;7.38;4.05;;;;;;;34.87;21.25;101729.16;4982243;28;100579;-68
2023/07/09 09:28:19;;;;;;;7.22;2.78;;;;;;;34.74;20.57;101735.31;4976867;28;98971;-70
2023/07/09 09:30:46;;;;;;;2.90;2.63;;;;;;;34.72;20.39;101742.91;4986816;28;97462;-69
2023/07/09 09:33:13;;;;;;;3.35;2.50;;;;;;;34.42;19.86;101736.47;4990224;28;97193;-70
2023/07/09 09:35:44;;;;;;;4.82;2.75;;;;;;;34.62;19.37;101743.13;4991592;28;98893;-69
2023/07/09 09:38:12;;;;;;;7.40;3.30;;;;;;;34.63;19.49;101731.13;4984800;28;98752;-70
2023/07/09 09:40:41;;;;;;;4.70;2.95;;;;;;;34.59;20.49;101734.44;4995741;28;99239;-69
2023/07/09 09:43:14;;;;;;;3.35;2.88;;;;;;;34.30;20.49;101735.22;4990522;28;97131;-69
2023/07/09 09:45:44;;;;;;;6.25;3.05;;;;;;;34.59;20.36;101742.66;4982593;28;101406;-69
2023/07/09 09:48:16;;;;;;;2.83;2.50;;;;;;;34.50;20.08;101739.13;4985992;28;98545;-70
2023/07/09 09:50:45;;;;;;;3.53;2.97;;;;;;;34.61;19.91;101740.56;4983446;28;97033;-70
2023/07/09 09:53:21;;;;;;;4.93;2.72;;;;;;;34.57;20.79;101744.72;4996555;28;96884;-69
2023/07/09 09:55:49;;;;;;;4.32;2.63;;;;;;;34.44;20.61;101747.25;4989501;28;99275;-69
2023/07/09 09:58:21;;;;;;;4.63;3.33;;;;;;;34.76;20.35;101739.56;4988523;28;98875;-70
2023/07/09 10:00:50;;;;;;;5.68;3.10;;;;;;;34.90;20.36;101735.13;4994105;28;96792;-70
2023/07/09 10:03:16;;;;;;;7.32;3.15;;;;;;;35.10;20.33;101735.41;4992854;28;96822;-71
2023/07/09 10:05:51;;;;;;;11.40;3.97;;;;;;;34.85;20.42;101737.59;4992632;28;98943;-69
2023/07/09 10:08:29;;;;;;;2.72;2.40;;;;;;;34.91;20.79;101736.00;4991426;28;99254;-70
2023/07/09 10:11:06;;;;;;;3.65;2.75;;;;;;;35.16;20.60;101738.22;4990759;28;96824;-69
2023/07/09 10:13:39;;;;;;;4.85;2.92;;;;;;;35.04;20.64;101730.66;4995528;28;97503;-70
2023/07/09 10:16:10;;;;;;;4.15;3.05;;;;;;;35.22;20.34;101731.16;4991521;28;102459;-70
2023/07/09 10:18:49;;;;;;;3.47;3.17;;;;;;;35.40;20.46;101736.22;4991233;28;100208;-68
2023/07/09 10:21:31;;;;;;;3.88;2.78;;;;;;;35.33;20.95;101732.53;4997130;28;97112;-69
2023/07/09 10:24:11;;;;;;;5.40;3.08;;;;;;;35.26;20.02;101731.59;4997364;28;96835;-69
2023/07/09 10:26:46;;;;;;;2.97;2.10;;;;;;;35.44;19.65;101732.91;4990129;28;99221;-70
2023/07/09 10:29:34;;;;;;;6.72;2.63;;;;;;;35.13;19.36;101733.09;4993871;28;98089;-70
2023/07/09 10:32:13;;;;;;;4.40;2.72;;;;;;;35.19;19.42;101731.47;4987507;28;96947;-70
2023/07/09 10:34:49;;;;;;;4.72;2.90;;;;;;;35.15;20.27;101728.28;4992961;28;97232;-69
2023/07/09 10:37:28;;;;;;;4.32;2.97;;;;;;;35.24;20.66;101725.47;4999314;28;99044;-69
2023/07/09 10:39:58;;;;;;;11.65;3.78;;;;;;;35.31;20.66;101731.91;4998640;28;99419;-70
2023/07/09 10:42:28;;;;;;;4.05;3.28;;;;;;;35.25;20.51;101727.19;4997944;28;96948;-69
2023/07/09 10:45:01;;;;;;;8.20;3.50;;;;;;;34.99;20.40;101728.47;4996775;28;96848;-70
2023/07/09 10:47:32;;;;;;;6.30;3.15;;;;;;;35.21;20.50;101725.84;4994219;28;98243;-70
2023/07/09 10:50:01;;;;;;;4.90;2.90;;;;;;;35.25;20.62;101724.44;4991240;28;99237;-69
2023/07/09 10:52:32;;;;;;;3.85;3.20;;;;;;;34.88;20.13;101717.13;5001183;28;96986;-70
2023/07/09 10:55:05;;;;;;;5.88;3.10;;;;;;;34.86;20.27;101722.81;4996064;28;96789;-70
2023/07/09 10:57:47;;;;;;;5.25;3.15;;;;;;;35.10;20.35;101719.78;4985141;28;100364;-69
2023/07/09 11:00:18;;;;;;;3.40;2.90;;;;;;;35.00;20.56;101718.34;4990703;28;98865;-69
2023/07/09 11:02:46;;;;;;;5.18;2.58;;;;;;;35.22;20.55;101720.16;4994457;28;98062;-69
2023/07/09 11:05:13;;;;;;;3.55;3.10;;;;;;;35.38;21.04;101719.09;4993843;28;96975;-70
2023/07/09 11:07:45;;;;;;;4.13;3.13;;;;;;;35.24;20.83;101719.97;4998329;28;99880;-69
2023/07/09 11:10:22;;;;;;;3.97;2.88;;;;;;;35.12;20.83;101719.56;4998587;28;98918;-69
2023/07/09 11:12:56;;;;;;;3.33;3.03;;;;;;;35.21;21.22;101725.84;4991389;28;97632;-70
2023/07/09 11:15:31;;;;;;;4.20;2.88;;;;;;;35.19;20.67;101721.34;4995652;28;96860;-70
2023/07/09 11:17:59;;;;;;;4.22;3.28;;;;;;;35.26;20.73;101715.97;4992577;28;97833;-71
2023/07/09 11:20:28;;;;;;;3.50;3.03;;;;;;;35.35;20.30;101713.97;4991864;28;97555;-71
2023/07/09 11:23:04;;;;;;;5.03;3.03;;;;;;;35.37;20.35;101707.25;4992430;28;96840;-71
2023/07/09 11:25:42;;;;;;;3.00;2.78;;;;;;;35.39;20.50;101704.28;4995562;28;96915;-70
2023/07/09 11:28:10;;;;;;;3.10;2.78;;;;;;;35.60;20.51;101698.81;4996696;28;99093;-70
2023/07/09 11:30:47;;;;;;;4.60;3.28;;;;;;;35.24;19.82;101700.75;4987243;28;99241;-70